createdAt,value
2022-11-24T00:01:22.983Z,52.10
2022-11-24T00:03:59.058Z,52.37
2022-11-24T00:06:27.014Z,52.60
2022-11-24T00:08:55.227Z,48.47
2022-11-24T00:11:27.291Z,51.97
2022-11-24T00:13:55.209Z,49.07
2022-11-24T00:16:31.308Z,50.80
2022-11-24T00:19:00.216Z,48.60
2022-11-24T00:21:28.810Z,48.17
2022-11-24T00:23:56.591Z,50.37
2022-11-24T00:26:30.604Z,50.07
2022-11-24T00:29:03.531Z,51.53
2022-11-24T00:31:40.493Z,51.90
2022-11-24T00:34:14.016Z,49.63
2022-11-24T00:36:42.187Z,50.17
2022-11-24T00:39:13.676Z,49.03
2022-11-24T00:41:41.567Z,50.43
2022-11-24T00:44:09.118Z,48.57
2022-11-24T00:46:36.187Z,49.67
2022-11-24T00:49:03.649Z,51.97
2022-11-24T00:51:30.981Z,49.10
2022-11-24T00:53:59.612Z,51.37
2022-11-24T00:56:28.267Z,52.53
2022-11-24T00:58:55.606Z,49.03
2022-11-24T01:01:26.300Z,50.17
2022-11-24T01:03:54.594Z,48.20
2022-11-24T01:06:26.670Z,48.13
2022-11-24T01:08:54.683Z,49.70
2022-11-24T01:11:27.262Z,50.17
2022-11-24T01:13:57.728Z,49.53
2022-11-24T01:16:32.163Z,47.20
2022-11-24T01:18:59.174Z,47.97
2022-11-24T01:21:26.095Z,50.87
2022-11-24T01:23:53.207Z,50.10
2022-11-24T01:26:22.166Z,48.07
2022-11-24T01:28:57.054Z,49.63
2022-11-24T01:31:25.548Z,44.43
2022-11-24T01:33:53.268Z,45.67
2022-11-24T01:36:20.782Z,47.60
2022-11-24T01:38:47.917Z,50.00
2022-11-24T01:41:24.536Z,48.80
2022-11-24T01:43:53.558Z,45.43
2022-11-24T01:46:41.924Z,48.67
2022-11-24T01:49:08.689Z,43.67
2022-11-24T01:51:41.714Z,42.17
2022-11-24T01:54:19.043Z,43.67
2022-11-24T01:56:49.670Z,42.53
2022-11-24T01:59:19.515Z,42.00
2022-11-24T02:01:48.715Z,43.30
2022-11-24T02:04:20.344Z,43.93
2022-11-24T02:06:48.317Z,42.67
2022-11-24T02:09:24.299Z,43.40
2022-11-24T02:11:52.069Z,45.10
2022-11-24T02:14:19.676Z,41.77
2022-11-24T02:16:50.909Z,45.47
2022-11-24T02:19:40.912Z,41.23
2022-11-24T02:22:41.833Z,42.10
2022-11-24T02:25:27.905Z,44.03
2022-11-24T02:27:56.948Z,42.80
2022-11-24T02:30:24.029Z,40.50
2022-11-24T02:32:52.512Z,44.00
2022-11-24T02:35:19.592Z,42.73
2022-11-24T02:37:46.451Z,42.67
2022-11-24T02:40:16.823Z,41.37
2022-11-24T02:42:46.011Z,41.13
2022-11-24T02:45:16.651Z,41.80
2022-11-24T02:47:43.886Z,41.73
2022-11-24T02:50:10.760Z,39.57
2022-11-24T02:52:37.626Z,41.63
2022-11-24T02:55:05.466Z,41.87
2022-11-24T02:57:32.592Z,42.50
2022-11-24T02:59:59.647Z,46.10
2022-11-24T03:02:26.602Z,42.17
2022-11-24T03:04:53.532Z,42.07
2022-11-24T03:07:20.522Z,37.87
2022-11-24T03:09:47.424Z,37.83
2022-11-24T03:12:14.390Z,40.70
2022-11-24T03:14:41.294Z,40.90
2022-11-24T03:17:08.188Z,37.90
2022-11-24T03:19:35.090Z,36.93
2022-11-24T03:22:02.015Z,38.30
2022-11-24T03:24:28.908Z,35.97
2022-11-24T03:26:55.854Z,35.90
2022-11-24T03:29:23.230Z,35.00
2022-11-24T03:31:50.120Z,35.20
2022-11-24T03:34:17.010Z,31.97
2022-11-24T03:36:43.884Z,31.73
2022-11-24T03:39:10.770Z,30.63
2022-11-24T03:41:37.636Z,33.67
2022-11-24T03:44:04.797Z,30.93
2022-11-24T03:46:31.737Z,34.80
2022-11-24T03:48:58.646Z,34.30
2022-11-24T03:51:25.530Z,35.23
2022-11-24T03:53:52.412Z,34.07
2022-11-24T03:56:19.303Z,35.27
2022-11-24T03:58:46.336Z,34.67
2022-11-24T04:01:13.245Z,34.67
2022-11-24T04:03:40.229Z,32.43
2022-11-24T04:06:07.145Z,31.13
2022-11-24T04:08:34.027Z,36.13
2022-11-24T04:11:00.995Z,32.47
2022-11-24T04:13:28.509Z,28.87
2022-11-24T04:15:55.465Z,30.80
2022-11-24T04:18:22.724Z,31.83
2022-11-24T04:20:51.261Z,31.37
2022-11-24T04:23:18.800Z,30.43
2022-11-24T04:25:45.692Z,30.60
2022-11-24T04:28:12.699Z,29.30
2022-11-24T04:30:44.523Z,31.40
2022-11-24T04:33:11.864Z,27.93
2022-11-24T04:35:38.737Z,30.73
2022-11-24T04:38:05.626Z,28.73
2022-11-24T04:40:32.526Z,31.60
2022-11-24T04:42:59.390Z,31.90
2022-11-24T04:45:26.288Z,30.47
2022-11-24T04:47:53.181Z,32.43
2022-11-24T04:50:20.770Z,30.37
2022-11-24T04:52:47.679Z,30.50
2022-11-24T04:55:14.560Z,28.60
2022-11-24T04:57:41.438Z,28.73
2022-11-24T05:00:10.453Z,30.43
2022-11-24T05:02:37.635Z,31.63
2022-11-24T05:05:06.583Z,34.10
2022-11-24T05:07:33.747Z,30.67
2022-11-24T05:10:19.034Z,33.93
2022-11-24T05:12:51.483Z,30.90
2022-11-24T05:15:18.453Z,28.47
2022-11-24T05:17:45.357Z,30.23
2022-11-24T05:20:12.257Z,28.60
2022-11-24T05:22:39.196Z,29.80
2022-11-24T05:25:06.464Z,29.70
2022-11-24T05:27:33.340Z,32.03
2022-11-24T05:30:00.210Z,32.90
2022-11-24T05:32:27.322Z,31.40
2022-11-24T05:34:54.637Z,31.87
2022-11-24T05:37:22.044Z,30.10
2022-11-24T05:39:48.927Z,30.87
2022-11-24T05:42:34.370Z,32.30
2022-11-24T05:45:01.250Z,30.57
2022-11-24T05:47:28.164Z,30.27
2022-11-24T05:49:55.067Z,32.10
2022-11-24T05:52:21.974Z,30.70
2022-11-24T05:54:49.134Z,29.03
2022-11-24T05:57:17.659Z,29.10
2022-11-24T05:59:44.779Z,29.43
2022-11-24T06:02:11.956Z,28.30
2022-11-24T06:04:39.642Z,29.00
2022-11-24T06:07:12.668Z,28.37
2022-11-24T06:09:41.172Z,27.80
2022-11-24T06:12:10.024Z,28.57
2022-11-24T06:14:37.195Z,27.57
2022-11-24T06:17:06.172Z,28.07
2022-11-24T06:19:33.052Z,28.80
2022-11-24T06:21:59.926Z,28.70
2022-11-24T06:24:26.899Z,28.27
2022-11-24T06:26:53.772Z,29.00
2022-11-24T06:29:20.650Z,29.50
2022-11-24T06:31:47.602Z,28.70
2022-11-24T06:34:14.542Z,27.00
2022-11-24T06:36:41.414Z,28.27
2022-11-24T06:39:08.325Z,27.80
2022-11-24T06:41:35.715Z,26.87
2022-11-24T06:44:04.535Z,28.97
2022-11-24T06:46:32.020Z,30.23
2022-11-24T06:48:59.880Z,27.97
2022-11-24T06:51:27.658Z,25.10
2022-11-24T06:53:54.935Z,29.00
2022-11-24T06:56:22.263Z,27.73
2022-11-24T06:58:51.958Z,26.50
2022-11-24T07:01:27.502Z,25.50
2022-11-24T07:03:55.719Z,26.77
2022-11-24T07:06:25.122Z,28.13
2022-11-24T07:08:52.746Z,27.77
2022-11-24T07:11:24.354Z,26.37
2022-11-24T07:13:56.470Z,27.07
2022-11-24T07:16:26.782Z,27.77
2022-11-24T07:18:54.835Z,29.17
2022-11-24T07:21:24.326Z,27.17
2022-11-24T07:23:54.170Z,26.80
2022-11-24T07:26:22.577Z,26.50
2022-11-24T07:28:50.041Z,27.23
2022-11-24T07:31:20.323Z,25.13
2022-11-24T07:33:51.947Z,27.57
2022-11-24T07:36:19.385Z,27.10
2022-11-24T07:38:46.984Z,25.97
2022-11-24T07:41:16.039Z,26.90
2022-11-24T07:43:42.963Z,30.43
2022-11-24T07:46:13.249Z,28.90
2022-11-24T07:48:40.592Z,29.90
2022-11-24T07:51:07.685Z,28.10
2022-11-24T07:53:35.270Z,28.40
2022-11-24T07:56:04.614Z,27.43
2022-11-24T07:58:34.310Z,27.43
2022-11-24T08:01:14.182Z,27.37
2022-11-24T08:03:42.535Z,26.77
2022-11-24T08:06:27.715Z,27.90
2022-11-24T08:08:56.876Z,27.27
2022-11-24T08:11:24.440Z,27.60
2022-11-24T08:13:51.681Z,26.67
2022-11-24T08:16:20.030Z,26.10
2022-11-24T08:18:55.361Z,24.77
2022-11-24T08:21:23.674Z,26.43
2022-11-24T08:23:57.330Z,25.00
2022-11-24T08:26:25.497Z,24.30
2022-11-24T08:28:58.439Z,25.27
2022-11-24T08:31:32.691Z,24.13
2022-11-24T08:34:00.614Z,24.07
2022-11-24T08:36:27.531Z,25.10
2022-11-24T08:38:56.449Z,24.83
2022-11-24T08:41:24.567Z,25.30
2022-11-24T08:43:51.502Z,25.63
2022-11-24T08:46:19.355Z,25.73
2022-11-24T08:48:51.468Z,25.93
2022-11-24T08:51:22.096Z,23.27
2022-11-24T08:53:48.991Z,23.00
2022-11-24T08:56:15.971Z,21.00
2022-11-24T08:58:42.972Z,22.77
2022-11-24T09:01:13.840Z,22.93
2022-11-24T09:03:46.557Z,23.17
2022-11-24T09:06:19.245Z,22.60
2022-11-24T09:08:46.265Z,21.60
2022-11-24T09:11:15.117Z,23.60
2022-11-24T09:13:42.644Z,21.70
2022-11-24T09:16:21.936Z,22.90
2022-11-24T09:18:56.846Z,21.63
2022-11-24T09:21:24.132Z,23.03
2022-11-24T09:23:53.423Z,23.63
2022-11-24T09:26:29.227Z,23.50
2022-11-24T09:28:57.995Z,22.60
2022-11-24T09:31:32.220Z,21.77
2022-11-24T09:33:59.526Z,19.37
2022-11-24T09:36:27.159Z,20.50
2022-11-24T09:38:54.253Z,21.50
2022-11-24T09:42:06.292Z,21.53
2022-11-24T09:45:57.057Z,22.63
2022-11-24T09:48:27.195Z,22.50
2022-11-24T09:50:54.178Z,23.10
2022-11-24T09:53:34.818Z,23.83
2022-11-24T09:56:22.874Z,24.47
2022-11-24T09:58:51.508Z,24.60
2022-11-24T10:01:22.770Z,23.67
2022-11-24T10:03:52.047Z,24.43
2022-11-24T10:06:27.679Z,24.80
2022-11-24T10:09:15.443Z,22.47
2022-11-24T10:12:15.626Z,24.40
2022-11-24T10:15:04.993Z,22.80
2022-11-24T10:17:58.250Z,24.07
2022-11-24T10:20:49.729Z,23.90
2022-11-24T10:23:45.652Z,25.77
2022-11-24T10:26:37.218Z,24.43
2022-11-24T10:29:33.235Z,24.43
2022-11-24T10:32:05.164Z,25.20
2022-11-24T10:34:37.640Z,25.57
2022-11-24T10:37:31.274Z,23.63
2022-11-24T10:40:33.467Z,23.10
2022-11-24T10:43:01.515Z,23.70
2022-11-24T10:45:29.645Z,23.83
2022-11-24T10:47:58.710Z,23.70
2022-11-24T10:50:33.114Z,23.80
2022-11-24T10:53:22.632Z,23.10
2022-11-24T10:55:58.092Z,21.93
2022-11-24T10:58:32.998Z,26.23
2022-11-24T11:01:13.159Z,31.40
2022-11-24T11:03:59.638Z,27.83
2022-11-24T11:06:32.182Z,24.50
2022-11-24T11:09:08.127Z,23.33
2022-11-24T11:11:36.967Z,22.50
2022-11-24T11:14:07.023Z,21.60
2022-11-24T11:16:43.679Z,23.17
2022-11-24T11:19:54.199Z,22.87
2022-11-24T11:22:30.403Z,23.20
2022-11-24T11:25:21.274Z,22.47
2022-11-24T11:27:48.981Z,21.57
2022-11-24T11:36:16.658Z,21.80
2022-11-24T11:38:45.397Z,21.33
2022-11-24T11:41:24.269Z,20.40
2022-11-24T11:44:05.060Z,22.80
2022-11-24T11:46:33.230Z,20.90
2022-11-24T11:49:00.574Z,21.10
2022-11-24T11:52:04.737Z,21.53
2022-11-24T11:54:59.655Z,24.80
2022-11-24T11:58:17.164Z,19.60
2022-11-24T12:01:00.988Z,20.80
2022-11-24T12:03:40.306Z,20.60
2022-11-24T12:06:42.046Z,21.80
2022-11-24T12:09:48.021Z,21.77
2022-11-24T12:13:07.611Z,20.50
2022-11-24T12:15:54.986Z,20.07
2022-11-24T12:19:14.015Z,20.23
2022-11-24T12:22:11.291Z,19.50
2022-11-24T12:25:15.045Z,19.67
2022-11-24T12:28:11.594Z,18.80
2022-11-24T12:31:06.417Z,20.40
2022-11-24T12:34:22.614Z,19.50
2022-11-24T12:37:26.595Z,20.60
2022-11-24T12:40:05.567Z,19.87
2022-11-24T12:42:51.355Z,20.30
2022-11-24T12:45:44.801Z,20.10
2022-11-24T12:48:34.632Z,19.60
2022-11-24T12:51:03.661Z,19.47
2022-11-24T12:53:37.321Z,19.03
2022-11-24T12:56:09.581Z,19.77
2022-11-24T12:59:09.722Z,20.80
2022-11-24T13:02:03.191Z,19.10
2022-11-24T13:04:38.642Z,21.27
2022-11-24T13:07:21.648Z,20.10
2022-11-24T13:10:53.648Z,22.00
2022-11-24T13:13:13.850Z,20.63
2022-11-24T13:16:07.054Z,21.10
2022-11-24T13:19:23.749Z,21.97
2022-11-24T13:22:09.616Z,20.37
2022-11-24T13:24:39.463Z,22.53
2022-11-24T13:27:15.871Z,21.47
2022-11-24T13:29:48.594Z,20.10
2022-11-24T13:32:15.353Z,23.70
2022-11-24T13:34:54.946Z,21.20
2022-11-24T13:37:35.490Z,21.63
2022-11-24T13:40:12.224Z,20.50
2022-11-24T13:42:57.784Z,22.83
2022-11-24T13:45:40.360Z,22.33
2022-11-24T13:48:19.939Z,20.83
2022-11-24T13:50:50.160Z,21.80
2022-11-24T13:53:47.259Z,19.60
2022-11-24T13:56:14.123Z,20.30
2022-11-24T13:58:47.817Z,19.70
2022-11-24T14:01:33.346Z,21.37
2022-11-24T14:04:29.820Z,22.40
2022-11-24T14:07:08.987Z,21.53
2022-11-24T14:09:46.964Z,23.80
2022-11-24T14:12:20.190Z,22.50
2022-11-24T14:14:52.494Z,20.57
2022-11-24T14:17:27.591Z,21.60
2022-11-24T14:19:57.142Z,22.37
2022-11-24T14:22:32.190Z,20.57
2022-11-24T14:25:01.143Z,20.33
2022-11-24T14:27:35.549Z,20.77
2022-11-24T14:30:13.326Z,20.17
2022-11-24T14:32:40.706Z,20.47
2022-11-24T14:35:32.040Z,21.10
2022-11-24T14:38:03.942Z,20.70
2022-11-24T14:40:41.804Z,21.00
2022-11-24T14:43:30.143Z,21.00
2022-11-24T14:46:10.423Z,22.03
2022-11-24T14:48:51.683Z,20.63
2022-11-24T14:51:24.375Z,22.07
2022-11-24T14:53:54.448Z,22.80
2022-11-24T14:56:34.795Z,23.43
2022-11-24T14:59:01.982Z,25.03
2022-11-24T15:01:29.293Z,24.17
2022-11-24T15:04:54.473Z,24.20
2022-11-24T15:07:18.858Z,22.50
2022-11-24T15:09:52.433Z,22.70
2022-11-24T15:12:34.797Z,22.40
2022-11-24T15:15:19.998Z,25.43
2022-11-24T15:17:56.348Z,26.43
2022-11-24T15:20:36.856Z,24.00
2022-11-24T15:23:21.924Z,25.63
2022-11-24T15:25:51.087Z,26.53
2022-11-24T15:28:18.071Z,24.40
2022-11-24T15:30:44.949Z,26.50
2022-11-24T15:33:19.649Z,25.10
2022-11-24T15:35:47.204Z,24.80
2022-11-24T15:38:14.937Z,26.27
2022-11-24T15:40:44.673Z,25.80
2022-11-24T15:43:34.077Z,34.37
2022-11-24T15:46:02.643Z,29.73
2022-11-24T15:48:30.227Z,28.47
2022-11-24T15:50:58.696Z,26.40
2022-11-24T15:53:34.141Z,26.90
2022-11-24T15:56:03.766Z,28.43
2022-11-24T15:58:30.656Z,25.50
2022-11-24T16:00:57.590Z,26.83
2022-11-24T16:03:46.180Z,26.80
2022-11-24T16:06:24.143Z,26.27
2022-11-24T16:08:53.130Z,27.53
2022-11-24T16:11:20.461Z,29.40
2022-11-24T16:13:52.552Z,27.87
2022-11-24T16:16:21.779Z,28.40
2022-11-24T16:18:48.795Z,29.97
2022-11-24T16:21:15.776Z,28.43
2022-11-24T16:23:42.783Z,28.37
2022-11-24T16:26:10.376Z,26.87
2022-11-24T16:28:37.306Z,28.80
2022-11-24T16:31:04.353Z,29.80
2022-11-24T16:33:31.737Z,28.17
2022-11-24T16:35:58.727Z,25.73
2022-11-24T16:38:25.618Z,27.90
2022-11-24T16:40:54.451Z,26.87
2022-11-24T16:43:21.435Z,25.73
2022-11-24T16:46:16.942Z,27.40
2022-11-24T16:48:46.432Z,27.87
2022-11-24T16:51:14.515Z,27.03
2022-11-24T16:53:41.963Z,26.80
2022-11-24T16:56:09.238Z,26.00
2022-11-24T16:58:40.840Z,26.57
2022-11-24T17:01:11.315Z,28.10
2022-11-24T17:03:38.996Z,27.50
2022-11-24T17:06:16.703Z,30.47
2022-11-24T17:08:46.094Z,28.10
2022-11-24T17:11:16.653Z,28.00
2022-11-24T17:13:44.355Z,26.57
2022-11-24T17:16:14.796Z,28.00
2022-11-24T17:18:42.494Z,28.57
2022-11-24T17:21:15.032Z,29.53
2022-11-24T17:23:42.267Z,29.37
2022-11-24T17:26:13.750Z,27.90
2022-11-24T17:28:41.645Z,27.90
2022-11-24T17:31:29.769Z,30.50
2022-11-24T17:33:58.964Z,28.67
2022-11-24T17:36:26.795Z,28.20
2022-11-24T17:38:53.849Z,27.57
2022-11-24T17:41:21.647Z,26.23
2022-11-24T17:43:53.611Z,27.30
2022-11-24T17:46:20.581Z,27.13
2022-11-24T17:48:47.793Z,26.37
2022-11-24T17:51:18.557Z,29.70
2022-11-24T17:53:47.683Z,28.73
2022-11-24T17:56:18.528Z,31.10
2022-11-24T17:58:45.422Z,30.90
2022-11-24T18:01:13.543Z,29.90
2022-11-24T18:03:40.879Z,30.47
2022-11-24T18:06:14.109Z,30.20
2022-11-24T18:08:44.967Z,27.73
2022-11-24T18:11:24.606Z,30.83
2022-11-24T18:13:59.907Z,30.03
2022-11-24T18:16:30.057Z,30.20
2022-11-24T18:19:14.898Z,33.80
2022-11-24T18:21:44.673Z,29.53
2022-11-24T18:24:12.947Z,29.83
2022-11-24T18:26:41.714Z,29.40
2022-11-24T18:29:10.036Z,29.50
2022-11-24T18:31:37.450Z,32.20
2022-11-24T18:34:05.791Z,46.83
2022-11-24T18:36:34.474Z,33.00
2022-11-24T18:39:03.278Z,30.37
2022-11-24T18:41:30.270Z,31.70
2022-11-24T18:43:57.195Z,32.33
2022-11-24T18:46:24.128Z,34.70
2022-11-24T18:48:53.087Z,31.37
2022-11-24T18:51:20.091Z,32.13
2022-11-24T18:53:51.648Z,31.33
2022-11-24T18:56:19.012Z,30.07
2022-11-24T18:58:46.513Z,32.47
2022-11-24T19:01:16.948Z,30.30
2022-11-24T19:03:49.113Z,30.47
2022-11-24T19:06:21.785Z,29.60
2022-11-24T19:08:51.805Z,30.70
2022-11-24T19:11:33.582Z,32.70
2022-11-24T19:14:04.788Z,30.20
2022-11-24T19:16:32.100Z,29.23
2022-11-24T19:19:00.119Z,29.27
2022-11-24T19:21:28.287Z,30.23
2022-11-24T19:23:58.507Z,26.83
2022-11-24T19:26:28.248Z,27.53
2022-11-24T19:28:55.257Z,25.93
2022-11-24T19:31:22.314Z,27.30
2022-11-24T19:33:49.212Z,26.87
2022-11-24T19:36:19.045Z,27.30
2022-11-24T19:38:54.359Z,29.50
2022-11-24T19:41:27.709Z,27.90
2022-11-24T19:43:55.035Z,29.47
2022-11-24T19:46:27.377Z,31.00
2022-11-24T19:48:56.939Z,30.30
2022-11-24T19:51:30.690Z,30.23
2022-11-24T19:53:58.265Z,29.10
2022-11-24T19:56:27.660Z,28.57
2022-11-24T19:58:55.657Z,30.00
2022-11-24T20:01:39.409Z,30.67
2022-11-24T20:04:14.936Z,30.20
2022-11-24T20:06:45.875Z,29.43
2022-11-24T20:09:16.856Z,27.47
2022-11-24T20:11:44.600Z,27.20
2022-11-24T20:14:14.191Z,25.93
2022-11-24T20:16:41.397Z,28.63
2022-11-24T20:19:12.620Z,25.97
2022-11-24T20:21:41.652Z,29.77
2022-11-24T20:24:13.365Z,28.30
2022-11-24T20:26:45.212Z,26.97
2022-11-24T20:29:13.671Z,28.53
2022-11-24T20:31:55.300Z,26.90
2022-11-24T20:34:23.619Z,27.10
2022-11-24T20:36:52.710Z,26.10
2022-11-24T20:39:26.484Z,26.83
2022-11-24T20:41:55.439Z,27.47
2022-11-24T20:44:24.908Z,25.73
2022-11-24T20:46:55.078Z,26.87
2022-11-24T20:49:23.134Z,27.00
2022-11-24T20:51:54.299Z,26.40
2022-11-24T20:54:21.984Z,25.87
2022-11-24T20:56:49.144Z,25.30
2022-11-24T20:59:24.282Z,26.80
2022-11-24T21:01:54.041Z,25.00
2022-11-24T21:04:26.579Z,25.50
2022-11-24T21:06:53.526Z,25.33
2022-11-24T21:09:20.883Z,27.60
2022-11-24T21:11:48.364Z,30.20
2022-11-24T21:14:15.414Z,26.37
2022-11-24T21:16:43.203Z,26.47
2022-11-24T21:19:15.077Z,24.27
2022-11-24T21:21:42.928Z,23.37
2022-11-24T21:24:18.531Z,27.30
2022-11-24T21:26:50.399Z,26.50
2022-11-24T21:29:19.166Z,27.17
2022-11-24T21:31:46.225Z,28.33
2022-11-24T21:34:16.579Z,27.33
2022-11-24T21:36:45.012Z,25.73
2022-11-24T21:39:14.677Z,28.17
2022-11-24T21:41:42.278Z,26.70
2022-11-24T21:44:11.301Z,26.83
2022-11-24T21:46:44.192Z,27.03
2022-11-24T21:49:14.891Z,27.50
2022-11-24T21:51:41.753Z,26.83
2022-11-24T21:54:08.905Z,27.17
2022-11-24T21:56:35.784Z,28.03
2022-11-24T21:59:02.656Z,28.53
2022-11-24T22:01:29.813Z,25.20
2022-11-24T22:03:56.881Z,27.53
2022-11-24T22:06:24.040Z,27.20
2022-11-24T22:08:50.971Z,27.00
2022-11-24T22:11:22.070Z,28.77
2022-11-24T22:13:49.742Z,26.30
2022-11-24T22:16:20.059Z,24.63
2022-11-24T22:18:47.363Z,26.03
2022-11-24T22:21:20.153Z,24.33
2022-11-24T22:23:52.535Z,23.70
2022-11-24T22:26:22.059Z,23.80
2022-11-24T22:28:49.014Z,24.03
2022-11-24T22:31:21.026Z,24.00
2022-11-24T22:33:48.966Z,23.00
2022-11-24T22:36:17.998Z,24.90
2022-11-24T22:38:44.887Z,24.23
2022-11-24T22:41:17.554Z,22.57
2022-11-24T22:43:45.792Z,25.83
2022-11-24T22:46:19.346Z,23.27
2022-11-24T22:48:48.369Z,25.40
2022-11-24T22:51:18.816Z,23.60
2022-11-24T22:53:53.697Z,23.07
2022-11-24T22:56:21.469Z,23.93
2022-11-24T22:58:49.073Z,22.70
2022-11-24T23:01:24.447Z,23.70
2022-11-24T23:03:54.359Z,22.87
2022-11-24T23:06:27.156Z,20.77
2022-11-24T23:08:54.502Z,26.00
2022-11-24T23:11:34.871Z,23.90
2022-11-24T23:14:05.982Z,23.07
2022-11-24T23:16:33.009Z,24.50
2022-11-24T23:18:59.932Z,22.53
2022-11-24T23:21:32.959Z,24.30
2022-11-24T23:24:02.356Z,23.37
2022-11-24T23:26:32.995Z,25.77
2022-11-24T23:28:59.949Z,25.73
2022-11-24T23:31:28.779Z,24.43
2022-11-24T23:34:01.536Z,25.57
2022-11-24T23:36:29.703Z,24.53
2022-11-24T23:38:57.243Z,25.20
2022-11-24T23:41:25.678Z,25.53
2022-11-24T23:43:53.182Z,24.17
2022-11-24T23:46:25.617Z,22.70
2022-11-24T23:48:54.560Z,23.10
2022-11-24T23:51:30.797Z,25.60
2022-11-24T23:53:58.996Z,24.87
2022-11-24T23:56:32.618Z,24.10
2022-11-24T23:59:01.938Z,24.23
